createdAt,value
2018-06-15T00:00:28.022Z,99.90
2018-06-15T00:03:01.445Z,99.90
2018-06-15T00:05:29.828Z,99.90
2018-06-15T00:07:58.245Z,99.90
2018-06-15T00:10:26.743Z,99.90
2018-06-15T00:12:55.146Z,99.90
2018-06-15T00:15:24.177Z,99.90
2018-06-15T00:17:52.567Z,99.90
2018-06-15T00:20:21.023Z,99.90
2018-06-15T00:22:49.397Z,99.90
2018-06-15T00:25:17.855Z,99.90
2018-06-15T00:27:46.229Z,99.90
2018-06-15T00:30:14.591Z,99.90
2018-06-15T00:32:43.162Z,99.90
2018-06-15T00:35:11.568Z,99.90
2018-06-15T00:37:39.945Z,99.90
2018-06-15T00:40:08.338Z,99.90
2018-06-15T00:42:36.696Z,99.90
2018-06-15T00:45:05.065Z,99.90
2018-06-15T00:47:33.431Z,99.90
2018-06-15T00:52:30.022Z,99.90
2018-06-15T00:54:58.432Z,99.90
2018-06-15T00:57:38.271Z,99.90
2018-06-15T01:00:06.646Z,99.90
2018-06-15T01:02:35.023Z,99.90
2018-06-15T01:05:03.472Z,99.90
2018-06-15T01:07:31.922Z,99.90
2018-06-15T01:10:00.331Z,99.90
2018-06-15T01:12:28.795Z,99.90
2018-06-15T01:14:57.156Z,99.90
2018-06-15T01:17:25.631Z,99.90
2018-06-15T01:19:54.783Z,99.90
2018-06-15T01:22:23.280Z,99.90
2018-06-15T01:24:51.732Z,99.90
2018-06-15T01:27:20.123Z,99.90
2018-06-15T01:29:48.485Z,99.90
2018-06-15T01:32:16.875Z,99.90
2018-06-15T01:34:45.291Z,99.90
2018-06-15T01:37:13.676Z,99.90
2018-06-15T01:39:42.027Z,99.90
2018-06-15T01:42:10.474Z,99.90
2018-06-15T01:44:38.962Z,99.90
2018-06-15T01:47:07.384Z,99.90
2018-06-15T01:49:36.350Z,99.90
2018-06-15T01:52:04.775Z,99.90
2018-06-15T01:54:33.150Z,99.90
2018-06-15T01:57:01.526Z,99.90
2018-06-15T01:59:30.044Z,99.90
2018-06-15T02:01:58.484Z,99.90
2018-06-15T02:04:26.878Z,99.90
2018-06-15T02:06:55.392Z,99.90
2018-06-15T02:09:23.813Z,99.90
2018-06-15T02:11:52.186Z,99.90
2018-06-15T02:14:20.684Z,99.90
2018-06-15T02:16:49.144Z,99.90
2018-06-15T02:19:17.567Z,99.90
2018-06-15T02:21:45.950Z,99.90
2018-06-15T02:24:14.397Z,99.90
2018-06-15T02:26:42.794Z,99.90
2018-06-15T02:29:11.194Z,99.90
2018-06-15T02:31:39.667Z,99.90
2018-06-15T02:34:08.050Z,99.90
2018-06-15T02:36:36.423Z,99.90
2018-06-15T02:39:07.542Z,99.90
2018-06-15T02:41:35.929Z,99.90
2018-06-15T02:44:05.210Z,99.90
2018-06-15T02:46:33.615Z,99.90
2018-06-15T02:49:02.066Z,99.90
2018-06-15T02:51:30.479Z,99.90
2018-06-15T02:53:58.836Z,99.90
2018-06-15T02:56:27.281Z,99.90
2018-06-15T02:58:55.698Z,99.90
2018-06-15T03:01:24.099Z,99.90
2018-06-15T03:03:52.687Z,99.90
2018-06-15T03:06:21.060Z,99.90
2018-06-15T03:08:50.337Z,99.90
2018-06-15T03:11:18.730Z,99.90
2018-06-15T03:13:47.161Z,99.90
2018-06-15T03:16:15.623Z,99.90
2018-06-15T03:18:43.971Z,99.90
2018-06-15T03:21:12.391Z,99.90
2018-06-15T03:23:40.862Z,99.90
2018-06-15T03:26:09.258Z,99.90
2018-06-15T03:28:37.627Z,99.90
2018-06-15T03:31:06.198Z,99.90
2018-06-15T03:33:34.559Z,99.90
2018-06-15T03:38:31.041Z,99.90
2018-06-15T03:40:59.484Z,99.90
2018-06-15T03:43:27.897Z,99.90
2018-06-15T03:45:56.271Z,99.90
2018-06-15T03:48:24.644Z,99.90
2018-06-15T03:50:53.009Z,99.90
2018-06-15T03:53:21.587Z,99.90
2018-06-15T03:55:50.021Z,99.90
2018-06-15T03:58:18.394Z,99.90
2018-06-15T04:00:46.792Z,99.90
2018-06-15T04:03:15.185Z,99.90
2018-06-15T04:05:43.600Z,99.90
2018-06-15T04:08:11.976Z,99.90
2018-06-15T04:10:40.371Z,99.90
2018-06-15T04:13:08.868Z,99.90
2018-06-15T04:15:37.237Z,99.90
2018-06-15T04:18:08.931Z,99.90
2018-06-15T04:20:38.604Z,99.90
2018-06-15T04:23:07.321Z,99.90
2018-06-15T04:25:35.744Z,99.90
2018-06-15T04:28:04.163Z,99.90
2018-06-15T04:30:32.573Z,99.90
2018-06-15T04:33:01.874Z,99.90
2018-06-15T04:35:30.272Z,99.90
2018-06-15T04:37:58.705Z,99.90
2018-06-15T04:40:27.419Z,99.90
2018-06-15T04:42:55.835Z,99.90
2018-06-15T04:47:52.467Z,99.90
2018-06-15T04:50:20.902Z,99.90
2018-06-15T04:52:49.274Z,99.90
2018-06-15T04:55:18.289Z,99.90
2018-06-15T04:57:46.727Z,99.90
2018-06-15T05:00:15.070Z,99.90
2018-06-15T05:02:43.486Z,99.90
2018-06-15T05:05:11.863Z,99.90
2018-06-15T05:07:40.277Z,99.90
2018-06-15T05:10:08.687Z,99.90
2018-06-15T05:12:37.208Z,99.90
2018-06-15T05:15:05.633Z,99.90
2018-06-15T05:17:34.060Z,99.90
2018-06-15T05:20:02.461Z,99.90
2018-06-15T05:22:30.918Z,99.90
2018-06-15T05:24:59.266Z,99.90
2018-06-15T05:27:27.721Z,99.90
2018-06-15T05:29:56.100Z,99.90
2018-06-15T05:32:24.502Z,99.90
2018-06-15T05:34:52.861Z,99.90
2018-06-15T05:37:21.323Z,99.90
2018-06-15T05:39:49.745Z,99.90
2018-06-15T05:42:18.135Z,99.90
2018-06-15T05:44:46.515Z,99.90
2018-06-15T05:47:14.880Z,99.90
2018-06-15T05:49:43.597Z,99.90
2018-06-15T05:52:12.045Z,99.90
2018-06-15T05:54:40.541Z,99.90
2018-06-15T05:57:08.915Z,99.90
2018-06-15T05:59:37.290Z,99.90
2018-06-15T06:02:05.727Z,99.90
2018-06-15T06:04:34.094Z,99.90
2018-06-15T06:07:02.494Z,99.90
2018-06-15T06:09:30.894Z,99.90
2018-06-15T06:11:59.289Z,99.90
2018-06-15T06:14:27.667Z,99.90
2018-06-15T06:16:56.085Z,99.90
2018-06-15T06:19:24.443Z,99.90
2018-06-15T06:21:52.805Z,99.90
2018-06-15T06:24:21.153Z,99.90
2018-06-15T06:26:49.557Z,99.90
2018-06-15T06:29:17.975Z,99.90
2018-06-15T06:31:46.373Z,99.90
2018-06-15T06:34:14.739Z,99.90
2018-06-15T06:36:43.143Z,99.90
2018-06-15T06:39:12.581Z,99.90
2018-06-15T06:41:40.945Z,99.90
2018-06-15T06:44:09.943Z,99.90
2018-06-15T06:46:38.323Z,99.90
2018-06-15T06:49:06.731Z,99.90
2018-06-15T06:51:35.112Z,99.90
2018-06-15T06:54:03.453Z,99.90
2018-06-15T06:56:31.815Z,94.90
2018-06-15T06:59:00.182Z,91.80
2018-06-15T07:01:28.538Z,90.70
2018-06-15T07:03:56.993Z,90.70
2018-06-15T07:06:25.385Z,91.20
2018-06-15T07:08:53.822Z,91.40
2018-06-15T07:11:22.185Z,91.50
2018-06-15T07:13:50.540Z,91.60
2018-06-15T07:16:18.967Z,91.50
2018-06-15T07:18:47.332Z,91.10
2018-06-15T07:21:15.684Z,86.60
2018-06-15T07:23:44.101Z,78.70
2018-06-15T07:26:12.461Z,70.90
2018-06-15T07:28:40.820Z,65.00
2018-06-15T07:31:09.197Z,59.00
2018-06-15T07:33:37.926Z,54.70
2018-06-15T07:36:06.330Z,52.70
2018-06-15T07:38:34.678Z,52.90
2018-06-15T07:41:03.076Z,54.40
2018-06-15T07:43:31.442Z,52.00
2018-06-15T07:45:59.937Z,49.40
2018-06-15T07:48:28.293Z,48.20
2018-06-15T07:50:56.649Z,48.60
2018-06-15T07:53:25.182Z,49.80
2018-06-15T07:55:53.581Z,50.30
2018-06-15T07:58:21.975Z,51.00
2018-06-15T08:00:50.377Z,52.20
2018-06-15T08:03:18.763Z,53.70
2018-06-15T08:08:15.233Z,54.10
2018-06-15T08:10:43.628Z,53.80
2018-06-15T08:13:12.017Z,54.60
2018-06-15T08:15:40.465Z,55.00
2018-06-15T08:20:37.020Z,56.70
2018-06-15T08:23:05.514Z,56.50
2018-06-15T08:25:33.891Z,57.10
2018-06-15T08:28:02.245Z,58.50
2018-06-15T08:30:30.595Z,59.20
2018-06-15T08:32:58.997Z,60.30
2018-06-15T08:35:27.389Z,60.80
2018-06-15T08:37:55.849Z,62.00
2018-06-15T08:40:24.237Z,62.90
2018-06-15T08:42:52.645Z,63.10
2018-06-15T08:45:21.006Z,62.50
2018-06-15T08:47:49.452Z,61.50
2018-06-15T08:50:17.847Z,62.00
2018-06-15T08:55:14.314Z,61.80
2018-06-15T08:57:43.015Z,60.50
2018-06-15T09:00:11.468Z,59.90
2018-06-15T09:02:39.944Z,59.50
2018-06-15T09:05:08.353Z,58.20
2018-06-15T09:07:36.825Z,57.10
2018-06-15T09:10:05.211Z,55.80
2018-06-15T09:15:01.705Z,54.10
2018-06-15T09:17:30.078Z,52.90
2018-06-15T09:19:58.425Z,51.80
2018-06-15T09:22:26.803Z,51.00
2018-06-15T09:24:55.176Z,50.50
2018-06-15T09:27:24.006Z,50.50
2018-06-15T09:29:52.541Z,50.40
2018-06-15T09:32:20.907Z,50.50
2018-06-15T09:34:49.293Z,50.80
2018-06-15T09:37:17.757Z,51.50
2018-06-15T09:39:46.141Z,51.20
2018-06-15T09:42:14.512Z,51.90
2018-06-15T09:44:42.888Z,51.70
2018-06-15T09:47:11.298Z,51.80
2018-06-15T09:49:39.646Z,51.30
2018-06-15T09:57:04.169Z,51.10
2018-06-15T09:59:32.570Z,50.40
2018-06-15T10:02:00.942Z,49.60
2018-06-15T10:04:29.323Z,49.80
2018-06-15T10:09:25.781Z,49.40
2018-06-15T10:11:54.222Z,49.20
2018-06-15T10:14:22.595Z,48.60
2018-06-15T10:16:51.020Z,48.10
2018-06-15T10:19:19.387Z,48.10
2018-06-15T10:21:47.796Z,47.50
2018-06-15T10:24:16.207Z,47.70
2018-06-15T10:26:44.855Z,48.00
2018-06-15T10:29:13.305Z,48.50
2018-06-15T10:31:41.711Z,48.10
2018-06-15T10:34:10.137Z,47.90
2018-06-15T10:36:38.607Z,47.60
2018-06-15T10:39:08.501Z,47.90
2018-06-15T10:41:36.914Z,47.10
2018-06-15T10:44:05.334Z,46.70
2018-06-15T10:46:33.719Z,46.70
2018-06-15T10:49:08.813Z,46.30
2018-06-15T10:54:05.314Z,47.80
2018-06-15T10:56:34.527Z,47.70
2018-06-15T10:59:02.913Z,47.10
2018-06-15T11:01:31.479Z,46.40
2018-06-15T11:03:59.824Z,45.70
2018-06-15T11:06:28.298Z,45.00
2018-06-15T11:08:56.713Z,45.20
2018-06-15T11:11:25.070Z,45.00
2018-06-15T11:13:53.503Z,43.70
2018-06-15T11:16:21.895Z,43.90
2018-06-15T11:18:50.243Z,43.50
2018-06-15T11:21:18.627Z,44.40
2018-06-15T11:23:47.043Z,45.40
2018-06-15T11:26:15.433Z,46.00
2018-06-15T11:28:43.794Z,46.80
2018-06-15T11:31:12.211Z,47.40
2018-06-15T11:33:40.956Z,48.40
2018-06-15T11:36:09.321Z,49.00
2018-06-15T11:38:37.677Z,49.90
2018-06-15T11:41:06.100Z,50.70
2018-06-15T11:43:34.425Z,51.00
2018-06-15T11:46:02.765Z,50.70
2018-06-15T11:50:59.185Z,47.90
2018-06-15T11:53:28.531Z,47.40
2018-06-15T11:55:56.895Z,47.30
2018-06-15T11:58:25.280Z,46.90
2018-06-15T12:00:53.606Z,47.30
2018-06-15T12:03:21.965Z,47.90
2018-06-15T12:08:18.461Z,49.00
2018-06-15T12:10:46.927Z,50.20
2018-06-15T12:13:15.311Z,51.00
2018-06-15T12:15:43.683Z,50.90
2018-06-15T12:18:12.045Z,52.00
2018-06-15T12:20:40.465Z,52.60
2018-06-15T12:23:08.877Z,52.70
2018-06-15T12:25:37.271Z,51.50
2018-06-15T12:28:05.641Z,50.40
2018-06-15T12:30:34.072Z,49.60
2018-06-15T12:33:02.442Z,46.70
2018-06-15T12:35:30.799Z,45.70
2018-06-15T12:37:59.271Z,42.60
2018-06-15T12:40:27.688Z,41.20
2018-06-15T12:42:56.038Z,41.10
2018-06-15T12:45:24.516Z,41.00
2018-06-15T12:47:52.915Z,41.80
2018-06-15T12:50:21.299Z,42.10
2018-06-15T12:52:49.681Z,40.50
2018-06-15T12:55:18.051Z,39.40
2018-06-15T12:57:46.440Z,39.20
2018-06-15T13:00:14.799Z,39.50
2018-06-15T13:02:43.257Z,38.90
2018-06-15T13:05:11.606Z,39.90
2018-06-15T13:07:40.188Z,42.20
2018-06-15T13:10:08.559Z,45.70
2018-06-15T13:12:36.930Z,46.70
2018-06-15T13:15:05.381Z,44.90
2018-06-15T13:17:33.785Z,42.60
2018-06-15T13:20:02.157Z,39.70
2018-06-15T13:22:30.658Z,39.70
2018-06-15T13:24:59.051Z,39.40
2018-06-15T13:27:27.439Z,39.70
2018-06-15T13:29:55.890Z,40.10
2018-06-15T13:32:24.336Z,40.20
2018-06-15T13:34:52.920Z,40.80
2018-06-15T13:37:21.298Z,40.20
2018-06-15T13:39:49.656Z,38.60
2018-06-15T13:42:18.023Z,37.40
2018-06-15T13:44:46.469Z,36.60
2018-06-15T13:47:14.810Z,35.90
2018-06-15T13:49:43.169Z,35.40
2018-06-15T13:52:11.557Z,35.60
2018-06-15T13:54:39.949Z,36.60
2018-06-15T13:57:08.323Z,37.70
2018-06-15T13:59:36.776Z,38.70
2018-06-15T14:02:05.672Z,38.40
2018-06-15T14:04:34.088Z,37.50
2018-06-15T14:07:02.584Z,37.10
2018-06-15T14:09:30.953Z,37.20
2018-06-15T14:11:59.400Z,37.60
2018-06-15T14:14:27.768Z,36.90
2018-06-15T14:16:56.166Z,37.00
2018-06-15T14:19:24.506Z,36.30
2018-06-15T14:21:53.087Z,35.30
2018-06-15T14:24:21.484Z,35.10
2018-06-15T14:26:49.878Z,33.90
2018-06-15T14:29:18.238Z,34.30
2018-06-15T14:31:46.607Z,35.40
2018-06-15T14:34:14.982Z,36.40
2018-06-15T14:36:43.348Z,36.70
2018-06-15T14:41:40.392Z,37.10
2018-06-15T14:44:08.844Z,37.50
2018-06-15T14:46:37.212Z,38.30
2018-06-15T14:49:05.702Z,39.60
2018-06-15T14:51:34.071Z,39.20
2018-06-15T14:54:02.451Z,38.40
2018-06-15T14:56:30.865Z,37.20
2018-06-15T14:58:59.241Z,36.90
2018-06-15T15:01:27.603Z,37.10
2018-06-15T15:03:56.087Z,37.10
2018-06-15T15:06:25.072Z,37.50
2018-06-15T15:08:53.476Z,37.50
2018-06-15T15:11:21.855Z,37.30
2018-06-15T15:13:50.224Z,37.60
2018-06-15T15:18:46.723Z,39.30
2018-06-15T15:21:15.075Z,39.40
2018-06-15T15:23:43.480Z,39.30
2018-06-15T15:26:11.999Z,39.00
2018-06-15T15:28:40.461Z,39.60
2018-06-15T15:31:08.829Z,39.50
2018-06-15T15:33:37.198Z,38.90
2018-06-15T15:36:05.691Z,38.70
2018-06-15T15:38:34.049Z,38.60
2018-06-15T15:41:02.409Z,39.00
2018-06-15T15:43:30.750Z,38.80
2018-06-15T15:45:59.226Z,38.50
2018-06-15T15:48:27.597Z,38.70
2018-06-15T15:50:55.954Z,37.60
2018-06-15T15:53:24.468Z,36.20
2018-06-15T15:55:52.839Z,36.00
2018-06-15T15:58:21.614Z,36.10
2018-06-15T16:00:50.023Z,35.20
2018-06-15T16:03:18.408Z,35.20
2018-06-15T16:05:46.781Z,35.00
2018-06-15T16:08:15.148Z,35.10
2018-06-15T16:10:43.556Z,35.60
2018-06-15T16:13:11.991Z,36.60
2018-06-15T16:15:40.367Z,36.20
2018-06-15T16:18:08.765Z,36.70
2018-06-15T16:20:37.131Z,37.50
2018-06-15T16:23:05.690Z,38.10
2018-06-15T16:25:34.056Z,38.90
2018-06-15T16:28:02.441Z,39.50
2018-06-15T16:30:30.796Z,40.00
2018-06-15T16:32:59.204Z,39.70
2018-06-15T16:35:27.606Z,40.10
2018-06-15T16:37:56.291Z,40.30
2018-06-15T16:40:24.712Z,40.60
2018-06-15T16:42:53.106Z,41.30
2018-06-15T16:45:21.484Z,42.20
2018-06-15T16:47:49.950Z,42.80
2018-06-15T16:50:18.324Z,44.80
2018-06-15T16:52:47.370Z,44.40
2018-06-15T16:55:15.797Z,43.90
2018-06-15T16:57:44.898Z,44.80
2018-06-15T17:00:13.308Z,45.20
2018-06-15T17:02:41.713Z,45.90
2018-06-15T17:05:10.435Z,46.50
2018-06-15T17:07:38.852Z,47.80
2018-06-15T17:10:07.218Z,47.90
2018-06-15T17:12:35.607Z,47.60
2018-06-15T17:15:03.972Z,47.70
2018-06-15T17:17:32.369Z,47.90
2018-06-15T17:20:00.859Z,47.70
2018-06-15T17:22:29.684Z,47.50
2018-06-15T17:24:58.072Z,47.90
2018-06-15T17:27:26.463Z,48.20
2018-06-15T17:29:54.870Z,48.50
2018-06-15T17:32:23.304Z,48.50
2018-06-15T17:34:51.656Z,47.40
2018-06-15T17:37:20.033Z,46.90
2018-06-15T17:39:48.418Z,46.90
2018-06-15T17:42:16.814Z,47.50
2018-06-15T17:44:45.276Z,47.20
2018-06-15T17:47:13.697Z,47.40
2018-06-15T17:49:42.069Z,47.80
2018-06-15T17:52:10.532Z,48.50
2018-06-15T17:54:38.908Z,48.80
2018-06-15T17:57:07.271Z,49.60
2018-06-15T17:59:35.729Z,50.20
2018-06-15T18:02:04.091Z,50.50
2018-06-15T18:04:32.465Z,51.20
2018-06-15T18:07:00.857Z,51.90
2018-06-15T18:09:29.221Z,52.30
2018-06-15T18:11:57.615Z,53.50
2018-06-15T18:14:26.088Z,55.30
2018-06-15T18:16:54.467Z,56.90
2018-06-15T18:19:22.857Z,58.10
2018-06-15T18:21:51.258Z,58.50
2018-06-15T18:24:19.585Z,59.10
2018-06-15T18:26:47.950Z,59.80
2018-06-15T18:29:16.310Z,61.30
2018-06-15T18:31:44.772Z,61.60
2018-06-15T18:34:13.146Z,62.20
2018-06-15T18:36:41.640Z,63.70
2018-06-15T18:39:12.660Z,65.40
2018-06-15T18:41:41.012Z,66.70
2018-06-15T18:44:09.630Z,67.10
2018-06-15T18:46:38.170Z,68.10
2018-06-15T18:49:06.622Z,69.50
2018-06-15T18:51:35.367Z,69.40
2018-06-15T18:54:03.888Z,68.90
2018-06-15T18:56:32.316Z,68.40
2018-06-15T18:59:00.680Z,68.00
2018-06-15T19:01:29.099Z,67.60
2018-06-15T19:03:57.537Z,67.70
2018-06-15T19:06:25.997Z,68.20
2018-06-15T19:08:54.385Z,68.70
2018-06-15T19:11:22.768Z,69.00
2018-06-15T19:13:51.346Z,69.50
2018-06-15T19:16:19.740Z,69.30
2018-06-15T19:18:48.133Z,69.30
2018-06-15T19:21:16.540Z,69.60
2018-06-15T19:23:44.944Z,70.30
2018-06-15T19:28:47.955Z,71.80
2018-06-15T19:31:16.415Z,72.40
2018-06-15T19:33:44.836Z,73.80
2018-06-15T19:36:13.209Z,74.60
2018-06-15T19:38:41.598Z,75.60
2018-06-15T19:41:09.957Z,76.60
2018-06-15T19:43:38.333Z,77.20
2018-06-15T19:46:06.694Z,78.40
2018-06-15T19:48:35.201Z,79.40
2018-06-15T19:51:03.688Z,80.00
2018-06-15T19:53:32.073Z,81.20
2018-06-15T19:56:00.474Z,81.80
2018-06-15T19:58:28.813Z,82.40
2018-06-15T20:03:25.276Z,83.70
2018-06-15T20:05:53.681Z,84.40
2018-06-15T20:08:22.043Z,85.40
2018-06-15T20:10:50.556Z,85.70
2018-06-15T20:13:18.976Z,86.30
2018-06-15T20:15:47.417Z,86.90
2018-06-15T20:18:15.813Z,87.50
2018-06-15T20:20:44.163Z,88.40
2018-06-15T20:23:12.524Z,89.50
2018-06-15T20:25:40.895Z,90.30
2018-06-15T20:28:09.264Z,91.50
2018-06-15T20:30:37.629Z,93.10
2018-06-15T20:33:06.059Z,94.10
2018-06-15T20:35:34.435Z,95.40
2018-06-15T20:38:02.810Z,97.00
2018-06-15T20:40:31.196Z,98.10
2018-06-15T20:42:59.737Z,99.50
2018-06-15T20:45:28.123Z,99.90
2018-06-15T20:47:56.512Z,99.90
2018-06-15T20:50:24.897Z,99.90
2018-06-15T20:52:53.267Z,99.90
2018-06-15T20:55:21.640Z,99.90
2018-06-15T20:57:50.115Z,99.90
2018-06-15T21:00:18.485Z,99.90
2018-06-15T21:02:46.909Z,99.90
2018-06-15T21:05:15.439Z,99.90
2018-06-15T21:07:43.836Z,99.90
2018-06-15T21:10:12.177Z,99.90
2018-06-15T21:12:40.533Z,99.90
2018-06-15T21:15:08.925Z,99.90
2018-06-15T21:17:37.306Z,99.90
2018-06-15T21:20:05.777Z,99.90
2018-06-15T21:22:34.153Z,99.90
2018-06-15T21:25:02.598Z,99.90
2018-06-15T21:27:30.993Z,99.90
2018-06-15T21:29:59.370Z,99.90
2018-06-15T21:32:27.729Z,99.90
2018-06-15T21:34:56.141Z,99.90
2018-06-15T21:37:24.509Z,99.90
2018-06-15T21:39:52.897Z,99.90
2018-06-15T21:42:21.219Z,99.90
2018-06-15T21:44:49.597Z,99.90
2018-06-15T21:47:17.953Z,99.90
2018-06-15T21:49:46.341Z,99.90
2018-06-15T21:52:14.739Z,99.90
2018-06-15T21:54:43.090Z,99.90
2018-06-15T21:57:11.430Z,99.90
2018-06-15T21:59:39.795Z,99.90
2018-06-15T22:02:08.235Z,99.90
2018-06-15T22:04:36.594Z,99.90
2018-06-15T22:07:04.983Z,99.90
2018-06-15T22:09:33.326Z,99.90
2018-06-15T22:12:01.719Z,99.90
2018-06-15T22:14:30.122Z,99.90
2018-06-15T22:16:58.485Z,99.90
2018-06-15T22:19:26.958Z,99.90
2018-06-15T22:21:55.370Z,99.90
2018-06-15T22:24:24.106Z,99.90
2018-06-15T22:26:52.566Z,99.90
2018-06-15T22:29:20.936Z,99.90
2018-06-15T22:31:49.549Z,99.90
2018-06-15T22:34:17.973Z,99.90
2018-06-15T22:36:46.351Z,99.90
2018-06-15T22:39:15.892Z,99.90
2018-06-15T22:41:44.355Z,99.90
2018-06-15T22:44:13.303Z,99.90
2018-06-15T22:46:42.530Z,99.90
2018-06-15T22:49:11.806Z,99.90
2018-06-15T22:51:40.944Z,99.90
2018-06-15T22:54:09.380Z,99.90
2018-06-15T22:56:37.810Z,99.90
2018-06-15T22:59:06.198Z,99.90
2018-06-15T23:01:34.565Z,99.90
2018-06-15T23:04:02.957Z,99.90
2018-06-15T23:06:31.325Z,99.90
2018-06-15T23:08:59.696Z,99.90
2018-06-15T23:11:28.072Z,99.90
2018-06-15T23:13:56.454Z,99.90
2018-06-15T23:16:24.850Z,99.90
2018-06-15T23:18:53.262Z,99.90
2018-06-15T23:21:21.601Z,99.90
2018-06-15T23:23:50.017Z,99.90
2018-06-15T23:26:18.388Z,99.90
2018-06-15T23:28:46.736Z,99.90
2018-06-15T23:31:15.087Z,99.90
2018-06-15T23:33:43.482Z,99.90
2018-06-15T23:36:11.891Z,99.90
2018-06-15T23:38:40.245Z,99.90
2018-06-15T23:41:08.629Z,99.90
2018-06-15T23:43:37.096Z,99.90
2018-06-15T23:46:05.515Z,99.90
2018-06-15T23:48:33.878Z,99.90
2018-06-15T23:51:02.340Z,99.90
2018-06-15T23:53:30.697Z,99.90
2018-06-15T23:55:59.080Z,99.90
2018-06-15T23:58:27.455Z,99.90
